createdAt,value
2022-10-01T00:00:02.059Z,11.37
2022-10-01T00:02:03.640Z,11.35
2022-10-01T00:04:05.083Z,11.36
2022-10-01T00:06:06.504Z,11.36
2022-10-01T00:08:07.996Z,11.38
2022-10-01T00:10:11.061Z,11.38
2022-10-01T00:12:15.766Z,11.39
2022-10-01T00:14:17.403Z,11.38
2022-10-01T00:16:22.568Z,11.40
2022-10-01T00:18:24.052Z,11.43
2022-10-01T00:20:25.504Z,11.43
2022-10-01T00:22:26.931Z,11.43
2022-10-01T00:24:28.472Z,11.41
2022-10-01T00:26:33.039Z,11.40
2022-10-01T00:28:34.492Z,11.40
2022-10-01T00:30:40.168Z,11.41
2022-10-01T00:32:41.943Z,11.43
2022-10-01T00:34:43.539Z,11.43
2022-10-01T00:36:44.976Z,11.45
2022-10-01T00:38:47.935Z,11.43
2022-10-01T00:40:49.535Z,11.45
2022-10-01T00:42:51.017Z,11.46
2022-10-01T00:44:54.073Z,11.45
2022-10-01T00:47:02.199Z,11.49
2022-10-01T00:49:16.324Z,11.49
2022-10-01T00:51:18.330Z,11.48
2022-10-01T00:53:22.167Z,11.49
2022-10-01T00:55:28.475Z,11.50
2022-10-01T00:57:30.922Z,11.51
2022-10-01T00:59:33.811Z,11.55
2022-10-01T01:01:37.302Z,11.56
2022-10-01T01:03:39.076Z,11.57
2022-10-01T01:05:40.566Z,11.57
2022-10-01T01:07:46.313Z,11.59
2022-10-01T01:09:51.348Z,11.61
2022-10-01T01:12:01.364Z,11.62
2022-10-01T01:14:15.050Z,11.63
2022-10-01T01:16:29.196Z,11.63
2022-10-01T01:18:37.215Z,11.63
2022-10-01T01:20:51.309Z,11.63
2022-10-01T01:23:11.125Z,11.64
2022-10-01T01:25:22.289Z,11.67
2022-10-01T01:27:27.248Z,11.67
2022-10-01T01:29:40.136Z,11.66
2022-10-01T01:31:46.403Z,11.66
2022-10-01T01:33:51.858Z,11.67
2022-10-01T01:35:59.224Z,11.71
2022-10-01T01:38:06.471Z,11.71
2022-10-01T01:40:11.359Z,11.70
2022-10-01T01:42:29.137Z,11.68
2022-10-01T01:44:36.520Z,11.69
2022-10-01T01:46:43.437Z,11.68
2022-10-01T01:48:49.483Z,11.67
2022-10-01T01:51:14.570Z,11.65
2022-10-01T01:53:16.252Z,11.62
2022-10-01T01:55:19.080Z,11.60
2022-10-01T01:57:21.108Z,11.58
2022-10-01T01:59:22.799Z,11.55
2022-10-01T02:01:43.819Z,11.52
2022-10-01T02:03:45.295Z,11.45
2022-10-01T02:06:02.256Z,11.38
2022-10-01T02:08:23.373Z,11.30
2022-10-01T02:10:55.800Z,11.27
2022-10-01T02:13:28.979Z,11.22
2022-10-01T02:15:45.425Z,11.17
2022-10-01T02:18:17.680Z,11.12
2022-10-01T02:20:36.043Z,11.10
2022-10-01T02:23:06.617Z,11.07
2022-10-01T02:25:10.466Z,11.03
2022-10-01T02:27:20.880Z,11.02
2022-10-01T02:29:23.943Z,11.00
2022-10-01T02:31:28.242Z,10.98
2022-10-01T02:33:32.825Z,10.96
2022-10-01T02:35:36.927Z,10.95
2022-10-01T02:37:40.967Z,10.94
2022-10-01T02:39:44.317Z,10.93
2022-10-01T02:41:50.028Z,10.92
2022-10-01T02:43:51.687Z,10.89
2022-10-01T02:45:58.581Z,10.87
2022-10-01T02:48:04.198Z,10.84
2022-10-01T02:50:07.874Z,10.83
2022-10-01T02:52:16.976Z,10.81
2022-10-01T02:54:27.604Z,10.80
2022-10-01T02:56:48.981Z,10.80
2022-10-01T02:58:52.449Z,10.78
2022-10-01T03:00:54.114Z,10.77
2022-10-01T03:02:55.700Z,10.76
2022-10-01T03:04:57.915Z,10.75
2022-10-01T03:07:03.730Z,10.73
2022-10-01T03:09:08.676Z,10.69
2022-10-01T03:11:10.436Z,10.70
2022-10-01T03:13:11.862Z,10.69
2022-10-01T03:15:15.283Z,10.68
2022-10-01T03:17:17.127Z,10.66
2022-10-01T03:19:18.568Z,10.67
2022-10-01T03:21:20.031Z,10.64
2022-10-01T03:23:21.502Z,10.63
2022-10-01T03:25:22.937Z,10.62
2022-10-01T03:27:24.383Z,10.62
2022-10-01T03:29:25.999Z,10.58
2022-10-01T03:31:27.594Z,10.60
2022-10-01T03:33:29.010Z,10.60
2022-10-01T03:35:31.179Z,10.58
2022-10-01T03:37:32.671Z,10.56
2022-10-01T03:39:34.437Z,10.53
2022-10-01T03:41:36.979Z,10.52
2022-10-01T03:43:38.485Z,10.50
2022-10-01T03:45:40.003Z,10.49
2022-10-01T03:47:41.504Z,10.51
2022-10-01T03:49:42.917Z,10.50
2022-10-01T03:51:45.549Z,10.47
2022-10-01T03:53:47.942Z,10.45
2022-10-01T03:55:49.645Z,10.42
2022-10-01T03:57:51.305Z,10.42
2022-10-01T03:59:52.711Z,10.42
2022-10-01T04:01:54.580Z,10.40
2022-10-01T04:03:56.488Z,10.37
2022-10-01T04:05:58.006Z,10.35
2022-10-01T04:07:59.707Z,10.35
2022-10-01T04:10:01.231Z,10.33
2022-10-01T04:12:03.321Z,10.34
2022-10-01T04:14:05.119Z,10.30
2022-10-01T04:16:07.241Z,10.32
2022-10-01T04:18:09.225Z,10.29
2022-10-01T04:20:10.684Z,10.30
2022-10-01T04:22:12.119Z,10.29
2022-10-01T04:24:13.559Z,10.28
2022-10-01T04:26:15.014Z,10.25
2022-10-01T04:28:16.945Z,10.26
2022-10-01T04:30:18.424Z,10.26
2022-10-01T04:32:21.490Z,10.23
2022-10-01T04:34:42.865Z,10.21
2022-10-01T04:36:44.310Z,10.18
2022-10-01T04:38:45.770Z,10.18
2022-10-01T04:40:47.564Z,10.18
2022-10-01T04:42:48.980Z,10.18
2022-10-01T04:44:50.850Z,10.17
2022-10-01T04:46:52.361Z,10.22
2022-10-01T04:48:53.811Z,10.20
2022-10-01T04:50:55.219Z,10.19
2022-10-01T04:52:56.910Z,10.20
2022-10-01T04:54:58.342Z,10.20
2022-10-01T04:56:59.739Z,10.19
2022-10-01T04:59:01.217Z,10.19
2022-10-01T05:01:03.093Z,10.20
2022-10-01T05:03:04.604Z,10.22
2022-10-01T05:05:07.793Z,10.22
2022-10-01T05:07:09.807Z,10.22
2022-10-01T05:09:11.230Z,10.22
2022-10-01T05:11:12.694Z,10.22
2022-10-01T05:13:14.816Z,10.23
2022-10-01T05:15:17.649Z,10.24
2022-10-01T05:17:19.855Z,10.27
2022-10-01T05:19:25.222Z,10.28
2022-10-01T05:21:28.921Z,10.28
2022-10-01T05:23:30.344Z,10.29
2022-10-01T05:25:31.840Z,10.33
2022-10-01T05:27:37.682Z,10.33
2022-10-01T05:29:40.896Z,10.32
2022-10-01T05:31:44.360Z,10.34
2022-10-01T05:33:45.918Z,10.35
2022-10-01T05:35:47.846Z,10.35
2022-10-01T05:37:53.289Z,10.37
2022-10-01T05:39:54.740Z,10.38
2022-10-01T05:41:57.818Z,10.37
2022-10-01T05:43:59.303Z,10.37
2022-10-01T05:46:02.048Z,10.37
2022-10-01T05:48:06.486Z,10.37
2022-10-01T05:50:08.963Z,10.39
2022-10-01T05:52:11.701Z,10.38
2022-10-01T05:54:13.843Z,10.36
2022-10-01T05:56:15.317Z,10.34
2022-10-01T05:58:17.004Z,10.33
2022-10-01T06:00:18.748Z,10.33
2022-10-01T06:02:20.195Z,10.36
2022-10-01T06:04:21.720Z,10.35
2022-10-01T06:06:24.073Z,10.35
2022-10-01T06:08:28.740Z,10.35
2022-10-01T06:10:30.320Z,10.34
2022-10-01T06:12:34.129Z,10.33
2022-10-01T06:14:35.727Z,10.36
2022-10-01T06:16:37.217Z,10.35
2022-10-01T06:18:38.762Z,10.35
2022-10-01T06:20:41.004Z,10.35
2022-10-01T06:22:43.742Z,10.34
2022-10-01T06:24:45.238Z,10.34
2022-10-01T06:26:48.455Z,10.34
2022-10-01T06:28:50.784Z,10.35
2022-10-01T06:30:52.342Z,10.35
2022-10-01T06:33:02.755Z,10.36
2022-10-01T06:35:04.444Z,10.36
2022-10-01T06:37:05.912Z,10.39
2022-10-01T06:39:07.363Z,10.38
2022-10-01T06:41:09.658Z,10.39
2022-10-01T06:43:11.131Z,10.39
2022-10-01T06:45:12.683Z,10.39
2022-10-01T06:47:14.089Z,10.39
2022-10-01T06:49:15.720Z,10.39
2022-10-01T06:51:37.166Z,10.45
2022-10-01T06:53:38.670Z,10.44
2022-10-01T06:55:40.790Z,10.43
2022-10-01T06:57:42.245Z,10.49
2022-10-01T06:59:43.674Z,10.48
2022-10-01T07:01:45.152Z,10.50
2022-10-01T07:03:46.682Z,10.51
2022-10-01T07:05:49.020Z,10.52
2022-10-01T07:07:51.253Z,10.54
2022-10-01T07:09:52.996Z,10.55
2022-10-01T07:11:54.567Z,10.57
2022-10-01T07:13:57.566Z,10.59
2022-10-01T07:15:59.026Z,10.61
2022-10-01T07:18:01.224Z,10.61
2022-10-01T07:20:02.781Z,10.62
2022-10-01T07:22:04.189Z,10.64
2022-10-01T07:24:05.790Z,10.65
2022-10-01T07:26:09.152Z,10.67
2022-10-01T07:28:20.124Z,10.68
2022-10-01T07:30:21.891Z,10.70
2022-10-01T07:32:23.296Z,10.73
2022-10-01T07:34:26.164Z,10.75
2022-10-01T07:36:27.778Z,10.77
2022-10-01T07:38:29.887Z,10.77
2022-10-01T07:40:31.326Z,10.78
2022-10-01T07:42:32.740Z,10.80
2022-10-01T07:44:34.273Z,10.82
2022-10-01T07:46:36.181Z,10.85
2022-10-01T07:48:37.745Z,10.86
2022-10-01T07:50:39.200Z,10.88
2022-10-01T07:52:40.641Z,10.92
2022-10-01T07:54:42.088Z,10.95
2022-10-01T07:56:43.599Z,10.98
2022-10-01T07:58:45.060Z,11.00
2022-10-01T08:00:46.538Z,11.04
2022-10-01T08:02:50.729Z,11.06
2022-10-01T08:05:10.716Z,11.08
2022-10-01T08:07:12.232Z,11.11
2022-10-01T08:09:13.728Z,11.12
2022-10-01T08:11:17.951Z,11.22
2022-10-01T08:13:20.424Z,11.28
2022-10-01T08:15:21.846Z,11.32
2022-10-01T08:17:28.592Z,11.35
2022-10-01T08:19:30.869Z,11.37
2022-10-01T08:21:32.736Z,11.38
2022-10-01T08:23:34.588Z,11.40
2022-10-01T08:25:37.039Z,11.42
2022-10-01T08:27:38.506Z,11.44
2022-10-01T08:29:43.265Z,11.45
2022-10-01T08:31:44.760Z,11.51
2022-10-01T08:33:46.302Z,11.53
2022-10-01T08:35:48.103Z,11.56
2022-10-01T08:37:49.887Z,11.56
2022-10-01T08:39:51.362Z,11.59
2022-10-01T08:42:29.777Z,11.63
2022-10-01T08:44:37.372Z,11.63
2022-10-01T08:46:38.917Z,11.67
2022-10-01T08:48:56.853Z,11.69
2022-10-01T08:51:10.118Z,11.75
2022-10-01T08:53:16.600Z,11.81
2022-10-01T08:55:23.395Z,11.86
2022-10-01T08:57:29.891Z,11.91
2022-10-01T08:59:43.589Z,11.97
2022-10-01T09:01:45.262Z,11.97
2022-10-01T09:03:46.789Z,11.99
2022-10-01T09:06:19.171Z,12.02
2022-10-01T09:08:43.883Z,12.05
2022-10-01T09:10:56.449Z,12.08
2022-10-01T09:13:21.986Z,12.12
2022-10-01T09:15:39.865Z,12.17
2022-10-01T09:18:10.039Z,12.25
2022-10-01T09:20:29.558Z,12.31
2022-10-01T09:22:44.426Z,12.40
2022-10-01T09:25:03.654Z,12.49
2022-10-01T09:27:15.770Z,12.58
2022-10-01T09:29:29.962Z,12.66
2022-10-01T09:31:39.630Z,12.72
2022-10-01T09:33:44.206Z,12.78
2022-10-01T09:35:56.547Z,12.90
2022-10-01T09:38:03.597Z,12.98
2022-10-01T09:40:21.260Z,13.09
2022-10-01T09:42:26.400Z,13.08
2022-10-01T09:44:30.886Z,13.10
2022-10-01T09:46:32.370Z,13.16
2022-10-01T09:48:59.137Z,13.22
2022-10-01T09:51:15.464Z,13.29
2022-10-01T09:53:22.145Z,13.35
2022-10-01T09:55:43.253Z,13.43
2022-10-01T09:58:24.341Z,13.52
2022-10-01T10:00:27.338Z,13.57
2022-10-01T10:02:33.250Z,13.61
2022-10-01T10:04:35.785Z,13.62
2022-10-01T10:06:38.814Z,13.64
2022-10-01T10:08:45.457Z,13.67
2022-10-01T10:11:11.709Z,13.69
2022-10-01T10:13:26.552Z,13.72
2022-10-01T10:15:31.285Z,13.74
2022-10-01T10:17:37.764Z,13.78
2022-10-01T10:19:41.227Z,13.82
2022-10-01T10:21:52.552Z,13.88
2022-10-01T10:23:59.498Z,13.94
2022-10-01T10:26:06.357Z,14.00
2022-10-01T10:28:23.538Z,14.13
2022-10-01T10:30:26.475Z,14.16
2022-10-01T10:32:28.644Z,14.23
2022-10-01T10:34:35.792Z,14.42
2022-10-01T10:36:38.283Z,14.67
2022-10-01T10:38:39.924Z,14.92
2022-10-01T10:40:44.014Z,15.18
2022-10-01T10:42:51.162Z,15.30
2022-10-01T10:44:55.703Z,15.46
2022-10-01T10:47:00.560Z,15.60
2022-10-01T10:49:08.388Z,15.57
2022-10-01T10:51:10.603Z,15.48
2022-10-01T10:53:25.992Z,15.41
2022-10-01T10:55:31.484Z,15.38
2022-10-01T10:57:34.761Z,15.39
2022-10-01T10:59:36.217Z,15.39
2022-10-01T11:01:41.758Z,15.32
2022-10-01T11:03:56.215Z,15.26
2022-10-01T11:06:08.876Z,15.34
2022-10-01T11:08:21.818Z,15.45
2022-10-01T11:10:52.493Z,15.64
2022-10-01T11:13:27.872Z,16.20
2022-10-01T11:16:20.436Z,16.95
2022-10-01T11:18:41.953Z,17.58
2022-10-01T11:21:17.746Z,18.10
2022-10-01T11:23:22.120Z,18.33
2022-10-01T11:25:33.537Z,18.56
2022-10-01T11:27:36.490Z,18.57
2022-10-01T11:30:12.176Z,18.56
2022-10-01T11:32:34.050Z,18.61
2022-10-01T11:35:00.128Z,18.59
2022-10-01T11:37:13.821Z,18.57
2022-10-01T11:39:18.533Z,18.32
2022-10-01T11:41:28.995Z,18.03
2022-10-01T11:43:40.471Z,17.78
2022-10-01T11:45:46.102Z,17.78
2022-10-01T11:47:53.759Z,17.80
2022-10-01T11:50:27.348Z,17.82
2022-10-01T11:52:42.890Z,17.79
2022-10-01T11:55:30.035Z,17.83
2022-10-01T11:57:50.293Z,17.91
2022-10-01T12:00:04.305Z,18.05
2022-10-01T12:02:32.581Z,17.89
2022-10-01T12:04:43.341Z,17.62
2022-10-01T12:07:00.857Z,17.47
2022-10-01T12:09:14.592Z,17.33
2022-10-01T12:11:26.871Z,17.21
2022-10-01T12:13:33.519Z,17.13
2022-10-01T12:15:57.213Z,17.07
2022-10-01T12:18:31.857Z,16.99
2022-10-01T12:20:42.775Z,16.93
2022-10-01T12:22:45.934Z,16.86
2022-10-01T12:24:50.140Z,16.81
2022-10-01T12:26:58.067Z,16.76
2022-10-01T12:29:13.169Z,16.66
2022-10-01T12:31:57.707Z,16.57
2022-10-01T12:34:07.924Z,16.47
2022-10-01T12:36:36.563Z,16.36
2022-10-01T12:38:55.471Z,16.29
2022-10-01T12:41:15.093Z,16.18
2022-10-01T12:43:54.228Z,15.89
2022-10-01T12:46:04.955Z,15.70
2022-10-01T12:48:24.717Z,15.48
2022-10-01T12:50:45.098Z,15.38
2022-10-01T12:53:08.889Z,15.34
2022-10-01T12:55:34.271Z,15.33
2022-10-01T12:57:41.614Z,15.20
2022-10-01T13:00:24.977Z,15.04
2022-10-01T13:02:55.128Z,14.95
2022-10-01T13:05:05.090Z,14.87
2022-10-01T13:07:31.615Z,14.81
2022-10-01T13:09:48.920Z,14.74
2022-10-01T13:12:15.006Z,14.72
2022-10-01T13:14:18.853Z,14.72
2022-10-01T13:16:24.315Z,14.74
2022-10-01T13:18:36.571Z,14.76
2022-10-01T13:21:00.190Z,14.83
2022-10-01T13:23:05.412Z,14.86
2022-10-01T13:25:18.936Z,14.91
2022-10-01T13:27:28.340Z,14.98
2022-10-01T13:29:55.302Z,15.00
2022-10-01T13:31:58.267Z,15.05
2022-10-01T13:34:01.395Z,15.08
2022-10-01T13:36:08.213Z,15.12
2022-10-01T13:38:17.510Z,15.15
2022-10-01T13:40:23.983Z,15.20
2022-10-01T13:42:28.230Z,15.23
2022-10-01T13:44:35.608Z,15.25
2022-10-01T13:46:52.066Z,15.30
2022-10-01T13:48:55.137Z,15.36
2022-10-01T13:51:04.989Z,15.44
2022-10-01T13:53:20.596Z,15.46
2022-10-01T13:55:30.621Z,15.49
2022-10-01T13:57:37.704Z,15.52
2022-10-01T13:59:39.219Z,15.57
2022-10-01T14:01:42.198Z,15.62
2022-10-01T14:03:59.844Z,15.64
2022-10-01T14:06:03.977Z,15.68
2022-10-01T14:08:27.964Z,15.67
2022-10-01T14:10:36.221Z,15.66
2022-10-01T14:13:02.451Z,15.64
2022-10-01T14:15:34.533Z,15.64
2022-10-01T14:17:37.093Z,15.63
2022-10-01T14:19:45.021Z,15.59
2022-10-01T14:22:02.065Z,15.61
2022-10-01T14:24:22.002Z,15.63
2022-10-01T14:26:38.648Z,15.64
2022-10-01T14:28:59.089Z,15.66
2022-10-01T14:31:26.051Z,15.61
2022-10-01T14:34:04.207Z,15.62
2022-10-01T14:36:40.006Z,15.62
2022-10-01T14:38:41.506Z,15.63
2022-10-01T14:40:45.882Z,15.65
2022-10-01T14:43:01.027Z,15.71
2022-10-01T14:45:02.686Z,15.79
2022-10-01T14:47:19.495Z,15.85
2022-10-01T14:49:25.297Z,15.86
2022-10-01T14:51:30.500Z,15.84
2022-10-01T14:53:41.936Z,15.79
2022-10-01T14:55:43.748Z,15.73
2022-10-01T14:57:49.486Z,15.66
2022-10-01T14:59:51.195Z,15.60
2022-10-01T15:01:59.389Z,15.56
2022-10-01T15:04:01.110Z,15.51
2022-10-01T15:06:04.951Z,15.50
2022-10-01T15:08:38.049Z,15.51
2022-10-01T15:10:53.394Z,15.57
2022-10-01T15:12:55.651Z,15.57
2022-10-01T15:14:57.224Z,15.53
2022-10-01T15:17:06.572Z,15.47
2022-10-01T15:19:13.823Z,15.41
2022-10-01T15:21:20.022Z,15.34
2022-10-01T15:23:23.812Z,15.27
2022-10-01T15:25:29.055Z,15.23
2022-10-01T15:27:30.873Z,15.19
2022-10-01T15:29:32.400Z,15.16
2022-10-01T15:31:34.641Z,15.13
2022-10-01T15:33:40.307Z,15.09
2022-10-01T15:35:42.434Z,15.08
2022-10-01T15:37:50.089Z,15.09
2022-10-01T15:39:52.810Z,15.09
2022-10-01T15:41:55.473Z,15.10
2022-10-01T15:44:03.615Z,15.13
2022-10-01T15:46:05.023Z,15.12
2022-10-01T15:48:26.981Z,15.13
2022-10-01T15:50:32.398Z,15.13
2022-10-01T15:52:54.604Z,15.08
2022-10-01T15:55:00.402Z,15.05
2022-10-01T15:57:03.537Z,15.07
2022-10-01T15:59:18.401Z,15.14
2022-10-01T16:01:29.799Z,15.21
2022-10-01T16:03:38.824Z,15.28
2022-10-01T16:05:47.135Z,15.34
2022-10-01T16:07:56.083Z,15.30
2022-10-01T16:09:59.632Z,15.24
2022-10-01T16:12:24.048Z,15.18
2022-10-01T16:14:43.777Z,15.08
2022-10-01T16:16:45.383Z,15.03
2022-10-01T16:18:57.164Z,15.00
2022-10-01T16:20:58.738Z,14.94
2022-10-01T16:23:32.953Z,14.86
2022-10-01T16:25:44.214Z,14.80
2022-10-01T16:27:47.082Z,14.71
2022-10-01T16:30:05.708Z,14.65
2022-10-01T16:32:12.917Z,14.58
2022-10-01T16:34:17.571Z,14.53
2022-10-01T16:36:20.720Z,14.49
2022-10-01T16:38:22.137Z,14.44
2022-10-01T16:40:26.026Z,14.41
2022-10-01T16:42:27.507Z,14.36
2022-10-01T16:44:28.980Z,14.33
2022-10-01T16:46:31.170Z,14.28
2022-10-01T16:48:32.690Z,14.22
2022-10-01T16:50:34.611Z,14.19
2022-10-01T16:52:37.426Z,14.14
2022-10-01T16:54:39.339Z,14.11
2022-10-01T16:56:41.312Z,14.09
2022-10-01T16:58:46.019Z,14.05
2022-10-01T17:00:47.596Z,14.00
2022-10-01T17:02:49.231Z,13.96
2022-10-01T17:04:50.694Z,13.93
2022-10-01T17:06:53.774Z,13.92
2022-10-01T17:08:55.224Z,13.88
2022-10-01T17:11:00.173Z,13.84
2022-10-01T17:13:03.481Z,13.82
2022-10-01T17:15:06.018Z,13.79
2022-10-01T17:17:07.478Z,13.74
2022-10-01T17:19:10.391Z,13.68
2022-10-01T17:21:11.993Z,13.63
2022-10-01T17:23:15.776Z,13.59
2022-10-01T17:25:22.779Z,13.56
2022-10-01T17:27:24.265Z,13.55
2022-10-01T17:29:26.696Z,13.53
2022-10-01T17:31:28.564Z,13.50
2022-10-01T17:33:30.496Z,13.48
2022-10-01T17:35:32.049Z,13.47
2022-10-01T17:37:34.370Z,13.44
2022-10-01T17:39:36.132Z,13.44
2022-10-01T17:41:37.649Z,13.40
2022-10-01T17:43:47.798Z,13.39
2022-10-01T17:45:55.827Z,13.35
2022-10-01T17:47:57.416Z,13.32
2022-10-01T17:49:58.942Z,13.28
2022-10-01T17:52:00.466Z,13.26
2022-10-01T17:54:03.255Z,13.22
2022-10-01T17:56:23.748Z,13.19
2022-10-01T17:58:26.697Z,13.13
2022-10-01T18:00:28.230Z,13.09
2022-10-01T18:02:41.470Z,13.07
2022-10-01T18:04:43.503Z,13.01
2022-10-01T18:06:46.574Z,12.98
2022-10-01T18:08:56.569Z,12.95
2022-10-01T18:11:09.501Z,12.92
2022-10-01T18:13:10.932Z,12.88
2022-10-01T18:15:13.778Z,12.89
2022-10-01T18:17:15.501Z,12.90
2022-10-01T18:21:38.527Z,12.89
2022-10-01T18:23:43.329Z,12.88
2022-10-01T18:25:44.783Z,12.87
2022-10-01T18:27:50.084Z,12.87
2022-10-01T18:29:51.755Z,12.85
2022-10-01T18:31:58.763Z,12.83
2022-10-01T18:34:03.066Z,12.81
2022-10-01T18:36:17.626Z,12.80
2022-10-01T18:38:29.665Z,12.78
2022-10-01T18:40:39.954Z,12.76
2022-10-01T18:42:59.731Z,12.75
2022-10-01T18:45:02.346Z,12.73
2022-10-01T18:47:19.210Z,12.70
2022-10-01T18:49:37.900Z,12.69
2022-10-01T18:52:00.455Z,12.66
2022-10-01T18:54:26.342Z,12.66
2022-10-01T18:56:30.988Z,12.65
2022-10-01T18:58:51.781Z,12.66
2022-10-01T19:01:15.575Z,12.64
2022-10-01T19:03:47.631Z,12.62
2022-10-01T19:06:18.623Z,12.58
2022-10-01T19:08:57.441Z,12.55
2022-10-01T19:11:05.181Z,12.53
2022-10-01T19:13:21.447Z,12.50
2022-10-01T19:15:36.879Z,12.48
2022-10-01T19:17:50.293Z,12.46
2022-10-01T19:19:58.837Z,12.44
2022-10-01T19:22:14.724Z,12.46
2022-10-01T19:24:52.100Z,12.45
2022-10-01T19:27:09.529Z,12.44
2022-10-01T19:29:35.370Z,12.46
2022-10-01T19:31:52.740Z,12.48
2022-10-01T19:34:05.053Z,12.49
2022-10-01T19:36:14.362Z,12.50
2022-10-01T19:38:29.708Z,12.50
2022-10-01T19:40:37.411Z,12.50
2022-10-01T19:42:43.751Z,12.51
2022-10-01T19:44:58.566Z,12.50
2022-10-01T19:47:32.020Z,12.50
2022-10-01T19:49:36.337Z,12.52
2022-10-01T19:51:46.124Z,12.53
2022-10-01T19:53:56.432Z,12.52
2022-10-01T19:56:01.786Z,12.52
2022-10-01T19:58:13.696Z,12.51
2022-10-01T20:00:21.779Z,12.50
2022-10-01T20:02:35.382Z,12.50
2022-10-01T20:04:40.611Z,12.49
2022-10-01T20:06:46.345Z,12.49
2022-10-01T20:08:55.401Z,12.51
2022-10-01T20:11:32.065Z,12.51
2022-10-01T20:13:51.585Z,12.51
2022-10-01T20:16:13.303Z,12.49
2022-10-01T20:18:39.382Z,12.49
2022-10-01T20:21:02.868Z,12.48
2022-10-01T20:23:52.675Z,12.47
2022-10-01T20:26:26.443Z,12.44
2022-10-01T20:28:31.500Z,12.45
2022-10-01T20:30:48.757Z,12.42
2022-10-01T20:33:10.587Z,12.42
2022-10-01T20:35:33.968Z,12.39
2022-10-01T20:37:47.558Z,12.38
2022-10-01T20:39:55.526Z,12.37
2022-10-01T20:41:58.259Z,12.35
2022-10-01T20:44:02.116Z,12.37
2022-10-01T20:46:14.237Z,12.36
2022-10-01T20:48:38.121Z,12.34
2022-10-01T20:50:47.239Z,12.35
2022-10-01T20:52:54.074Z,12.36
2022-10-01T20:55:12.193Z,12.38
2022-10-01T20:57:25.689Z,12.38
2022-10-01T20:59:33.004Z,12.39
2022-10-01T21:01:42.269Z,12.37
2022-10-01T21:03:49.274Z,12.37
2022-10-01T21:05:56.608Z,12.36
2022-10-01T21:08:10.645Z,12.35
2022-10-01T21:10:48.054Z,12.31
2022-10-01T21:13:19.113Z,12.27
2022-10-01T21:15:23.669Z,12.26
2022-10-01T21:17:46.114Z,12.25
2022-10-01T21:20:05.945Z,12.22
2022-10-01T21:22:13.026Z,12.21
2022-10-01T21:24:39.475Z,12.21
2022-10-01T21:27:08.000Z,12.20
2022-10-01T21:29:19.244Z,12.14
2022-10-01T21:31:20.667Z,12.13
2022-10-01T21:33:29.712Z,12.14
2022-10-01T21:36:03.079Z,12.13
2022-10-01T21:38:32.452Z,12.12
2022-10-01T21:41:08.002Z,12.12
2022-10-01T21:43:35.719Z,12.08
2022-10-01T21:46:06.779Z,12.08
2022-10-01T21:48:29.112Z,12.09
2022-10-01T21:50:42.614Z,12.11
2022-10-01T21:53:02.675Z,12.12
2022-10-01T21:55:34.493Z,12.16
2022-10-01T21:58:06.949Z,12.15
2022-10-01T22:00:23.320Z,12.16
2022-10-01T22:02:36.772Z,12.15
2022-10-01T22:04:56.724Z,12.16
2022-10-01T22:07:28.064Z,12.14
2022-10-01T22:09:43.019Z,12.14
2022-10-01T22:11:51.369Z,12.14
2022-10-01T22:13:57.984Z,12.11
2022-10-01T22:16:07.582Z,12.11
2022-10-01T22:18:22.568Z,12.08
2022-10-01T22:20:29.006Z,12.08
2022-10-01T22:22:35.522Z,12.06
2022-10-01T22:24:43.581Z,12.05
2022-10-01T22:26:54.472Z,12.02
2022-10-01T22:28:56.819Z,11.99
2022-10-01T22:31:00.621Z,11.99
2022-10-01T22:33:20.951Z,11.98
2022-10-01T22:35:35.739Z,11.98
2022-10-01T22:37:42.341Z,11.97
2022-10-01T22:39:50.156Z,11.97
2022-10-01T22:42:11.081Z,11.97
2022-10-01T22:44:19.371Z,11.97
2022-10-01T22:46:51.541Z,11.96
2022-10-01T22:49:03.548Z,11.94
2022-10-01T22:51:26.686Z,11.93
2022-10-01T22:54:02.015Z,11.90
2022-10-01T22:56:03.512Z,11.86
2022-10-01T22:58:22.155Z,11.85
2022-10-01T23:00:24.060Z,11.77
2022-10-01T23:02:38.593Z,11.77
2022-10-01T23:04:39.996Z,11.76
2022-10-01T23:06:49.998Z,11.76
2022-10-01T23:09:13.419Z,11.75
2022-10-01T23:11:41.161Z,11.77
2022-10-01T23:14:15.348Z,11.79
2022-10-01T23:16:23.476Z,11.81
2022-10-01T23:18:52.934Z,11.82
2022-10-01T23:21:18.552Z,11.86
2022-10-01T23:23:32.109Z,11.87
2022-10-01T23:26:07.741Z,11.88
2022-10-01T23:28:09.197Z,11.90
2022-10-01T23:30:16.134Z,11.91
2022-10-01T23:32:20.273Z,11.93
2022-10-01T23:34:43.419Z,11.92
2022-10-01T23:36:53.451Z,11.93
2022-10-01T23:39:07.678Z,11.93
2022-10-01T23:41:18.747Z,11.91
2022-10-01T23:43:43.311Z,11.88
2022-10-01T23:45:55.184Z,11.85
2022-10-01T23:48:15.426Z,11.85
2022-10-01T23:50:26.186Z,11.85
2022-10-01T23:52:50.439Z,11.85
2022-10-01T23:55:17.342Z,11.88
2022-10-01T23:57:29.445Z,11.89
2022-10-01T23:59:46.251Z,11.90
